UDYZ/EVN METAR and TAF weather

Enter ICAO airport designator
Station Type Date Time Source
UDYZ METAR 2020/07/10 22:00 UTC NOAA

UDYZ 102200Z 14003KT 9999 FEW040CB 18/17 Q1015 R09/290060 NOSIG


Station Type Date Time Source
UDYZ Decoded METAR 2020/07/10 22:00 UTC NOAA

Station name not available
Jul 10, 2020 - 06:00 PM EDT / 2020.07.10 2200 UTC
Wind: from the SE (140 degrees) at 3 MPH (3 KT):0
Visibility: greater than 7 mile(s):0
Sky conditions: mostly clear
Weather: Cumulonimbus clouds observed
Temperature: 64 F (18 C)
Dew Point: 62 F (17 C)
Relative Humidity: 93%
Pressure (altimeter): 29.97 in. Hg (1015 hPa)
ob: UDYZ 102200Z 14003KT 9999 FEW040CB 18/17 Q1015 R09/290060 NOSIG
cycle: 22

Station Type Date Time Source
UDYZ TAF 2020/07/10 18:00 UTC NOAA

TAF UDYZ 101709Z 1018/1118 04006KT 9999 BKN030
TEMPO 1018/1024 VRB26G36KT -TSRA BKN020CB

Example: see airport list